sensor_id;sensor_type;location;lat;lon;timestamp;temperature;humidity
19799;DHT22;10059;59.850;10.454;2023-06-19T00:01:18;17.20;99.90
19799;DHT22;10059;59.850;10.454;2023-06-19T00:03:44;17.20;99.90
19799;DHT22;10059;59.850;10.454;2023-06-19T00:06:11;17.20;99.90
19799;DHT22;10059;59.850;10.454;2023-06-19T00:08:38;17.20;99.90
19799;DHT22;10059;59.850;10.454;2023-06-19T00:11:08;17.20;99.90
19799;DHT22;10059;59.850;10.454;2023-06-19T00:13:35;17.30;99.90
19799;DHT22;10059;59.850;10.454;2023-06-19T00:16:02;17.20;99.90
19799;DHT22;10059;59.850;10.454;2023-06-19T00:18:29;17.10;99.90
19799;DHT22;10059;59.850;10.454;2023-06-19T00:20:55;17.10;99.90
19799;DHT22;10059;59.850;10.454;2023-06-19T00:23:22;17.20;99.90
19799;DHT22;10059;59.850;10.454;2023-06-19T00:25:49;17.20;99.90
19799;DHT22;10059;59.850;10.454;2023-06-19T00:28:17;17.20;99.90
19799;DHT22;10059;59.850;10.454;2023-06-19T00:30:47;17.10;99.90
19799;DHT22;10059;59.850;10.454;2023-06-19T00:33:14;17.10;99.90
19799;DHT22;10059;59.850;10.454;2023-06-19T00:35:40;17.20;99.90
19799;DHT22;10059;59.850;10.454;2023-06-19T00:38:07;17.20;99.90
19799;DHT22;10059;59.850;10.454;2023-06-19T00:40:34;17.20;99.90
19799;DHT22;10059;59.850;10.454;2023-06-19T00:43:02;17.20;99.90
19799;DHT22;10059;59.850;10.454;2023-06-19T00:45:30;17.00;99.90
19799;DHT22;10059;59.850;10.454;2023-06-19T00:47:58;17.00;99.90
19799;DHT22;10059;59.850;10.454;2023-06-19T00:50:27;17.10;99.90
19799;DHT22;10059;59.850;10.454;2023-06-19T00:52:54;17.10;99.90
19799;DHT22;10059;59.850;10.454;2023-06-19T00:55:21;17.10;99.90
19799;DHT22;10059;59.850;10.454;2023-06-19T00:57:49;17.10;99.90
19799;DHT22;10059;59.850;10.454;2023-06-19T01:00:18;17.20;99.90
19799;DHT22;10059;59.850;10.454;2023-06-19T01:02:46;17.20;99.90
19799;DHT22;10059;59.850;10.454;2023-06-19T01:05:13;17.20;99.90
19799;DHT22;10059;59.850;10.454;2023-06-19T01:07:46;17.20;99.90
19799;DHT22;10059;59.850;10.454;2023-06-19T01:10:17;17.10;99.90
19799;DHT22;10059;59.850;10.454;2023-06-19T01:12:52;17.10;99.90
19799;DHT22;10059;59.850;10.454;2023-06-19T01:15:20;17.10;99.90
19799;DHT22;10059;59.850;10.454;2023-06-19T01:17:49;17.20;99.90
19799;DHT22;10059;59.850;10.454;2023-06-19T01:20:16;17.20;99.90
19799;DHT22;10059;59.850;10.454;2023-06-19T01:22:44;17.30;99.90
19799;DHT22;10059;59.850;10.454;2023-06-19T01:25:11;17.40;99.90
19799;DHT22;10059;59.850;10.454;2023-06-19T01:27:40;17.30;99.90
19799;DHT22;10059;59.850;10.454;2023-06-19T01:30:09;17.30;99.90
19799;DHT22;10059;59.850;10.454;2023-06-19T01:32:44;17.30;99.90
19799;DHT22;10059;59.850;10.454;2023-06-19T01:35:13;17.20;99.90
19799;DHT22;10059;59.850;10.454;2023-06-19T01:37:44;17.30;99.90
19799;DHT22;10059;59.850;10.454;2023-06-19T01:40:12;17.20;99.90
19799;DHT22;10059;59.850;10.454;2023-06-19T01:42:41;17.20;99.90
19799;DHT22;10059;59.850;10.454;2023-06-19T01:45:09;17.20;99.90
19799;DHT22;10059;59.850;10.454;2023-06-19T01:47:35;17.20;99.90
19799;DHT22;10059;59.850;10.454;2023-06-19T01:50:03;17.20;99.90
19799;DHT22;10059;59.850;10.454;2023-06-19T01:52:30;17.30;99.90
19799;DHT22;10059;59.850;10.454;2023-06-19T01:54:58;17.30;99.90
19799;DHT22;10059;59.850;10.454;2023-06-19T01:57:25;17.20;99.90
19799;DHT22;10059;59.850;10.454;2023-06-19T01:59:52;17.30;99.90
19799;DHT22;10059;59.850;10.454;2023-06-19T02:02:19;17.20;99.90
19799;DHT22;10059;59.850;10.454;2023-06-19T02:04:46;17.20;99.90
19799;DHT22;10059;59.850;10.454;2023-06-19T02:07:13;17.20;99.90
19799;DHT22;10059;59.850;10.454;2023-06-19T02:09:40;17.20;99.90
19799;DHT22;10059;59.850;10.454;2023-06-19T02:12:09;17.20;99.90
19799;DHT22;10059;59.850;10.454;2023-06-19T02:14:36;17.20;99.90
19799;DHT22;10059;59.850;10.454;2023-06-19T02:17:02;17.30;99.90
19799;DHT22;10059;59.850;10.454;2023-06-19T02:19:29;17.20;99.90
19799;DHT22;10059;59.850;10.454;2023-06-19T02:21:56;17.30;99.90
19799;DHT22;10059;59.850;10.454;2023-06-19T02:24:23;17.20;99.90
19799;DHT22;10059;59.850;10.454;2023-06-19T02:26:50;17.20;99.90
19799;DHT22;10059;59.850;10.454;2023-06-19T02:29:18;17.20;99.90
19799;DHT22;10059;59.850;10.454;2023-06-19T02:31:45;17.20;99.90
19799;DHT22;10059;59.850;10.454;2023-06-19T02:34:12;17.30;99.90
19799;DHT22;10059;59.850;10.454;2023-06-19T02:36:39;17.30;99.90
19799;DHT22;10059;59.850;10.454;2023-06-19T02:39:06;17.40;99.90
19799;DHT22;10059;59.850;10.454;2023-06-19T02:41:33;17.30;99.90
19799;DHT22;10059;59.850;10.454;2023-06-19T02:43:59;17.30;99.90
19799;DHT22;10059;59.850;10.454;2023-06-19T02:46:28;17.30;99.90
19799;DHT22;10059;59.850;10.454;2023-06-19T02:48:55;17.30;99.90
19799;DHT22;10059;59.850;10.454;2023-06-19T02:51:21;17.30;99.90
19799;DHT22;10059;59.850;10.454;2023-06-19T02:53:48;17.20;99.90
19799;DHT22;10059;59.850;10.454;2023-06-19T02:56:15;17.10;99.90
19799;DHT22;10059;59.850;10.454;2023-06-19T02:58:42;17.20;99.90
19799;DHT22;10059;59.850;10.454;2023-06-19T03:01:09;17.20;99.90
19799;DHT22;10059;59.850;10.454;2023-06-19T03:03:37;17.10;99.90
19799;DHT22;10059;59.850;10.454;2023-06-19T03:06:04;17.10;99.90
19799;DHT22;10059;59.850;10.454;2023-06-19T03:08:33;17.10;99.90
19799;DHT22;10059;59.850;10.454;2023-06-19T03:10:59;17.20;99.90
19799;DHT22;10059;59.850;10.454;2023-06-19T03:13:29;17.20;99.90
19799;DHT22;10059;59.850;10.454;2023-06-19T03:15:56;17.10;99.90
19799;DHT22;10059;59.850;10.454;2023-06-19T03:18:23;17.20;99.90
19799;DHT22;10059;59.850;10.454;2023-06-19T03:20:51;17.20;99.90
19799;DHT22;10059;59.850;10.454;2023-06-19T03:23:18;17.10;99.90
19799;DHT22;10059;59.850;10.454;2023-06-19T03:25:45;17.20;99.90
19799;DHT22;10059;59.850;10.454;2023-06-19T03:28:11;17.20;99.90
19799;DHT22;10059;59.850;10.454;2023-06-19T03:30:38;17.30;99.90
19799;DHT22;10059;59.850;10.454;2023-06-19T03:33:05;17.30;99.90
19799;DHT22;10059;59.850;10.454;2023-06-19T03:35:32;17.30;99.90
19799;DHT22;10059;59.850;10.454;2023-06-19T03:38:00;17.30;99.90
19799;DHT22;10059;59.850;10.454;2023-06-19T03:40:27;17.40;99.90
19799;DHT22;10059;59.850;10.454;2023-06-19T03:42:54;17.40;99.90
19799;DHT22;10059;59.850;10.454;2023-06-19T03:45:21;17.40;99.90
19799;DHT22;10059;59.850;10.454;2023-06-19T03:47:48;17.50;99.90
19799;DHT22;10059;59.850;10.454;2023-06-19T03:50:15;17.50;99.90
19799;DHT22;10059;59.850;10.454;2023-06-19T03:52:41;17.40;99.90
19799;DHT22;10059;59.850;10.454;2023-06-19T03:55:10;17.40;99.90
19799;DHT22;10059;59.850;10.454;2023-06-19T03:57:36;17.40;99.90
19799;DHT22;10059;59.850;10.454;2023-06-19T04:00:04;17.40;99.90
19799;DHT22;10059;59.850;10.454;2023-06-19T04:02:33;17.40;99.90
19799;DHT22;10059;59.850;10.454;2023-06-19T04:05:00;17.50;99.90
19799;DHT22;10059;59.850;10.454;2023-06-19T04:07:26;17.40;99.90
19799;DHT22;10059;59.850;10.454;2023-06-19T04:09:54;17.30;99.90
19799;DHT22;10059;59.850;10.454;2023-06-19T04:12:22;17.30;99.90
19799;DHT22;10059;59.850;10.454;2023-06-19T04:14:49;17.30;99.90
19799;DHT22;10059;59.850;10.454;2023-06-19T04:17:16;17.30;99.90
19799;DHT22;10059;59.850;10.454;2023-06-19T04:19:43;17.30;99.90
19799;DHT22;10059;59.850;10.454;2023-06-19T04:22:10;17.30;99.90
19799;DHT22;10059;59.850;10.454;2023-06-19T04:24:37;17.30;99.90
19799;DHT22;10059;59.850;10.454;2023-06-19T04:27:04;17.40;99.90
19799;DHT22;10059;59.850;10.454;2023-06-19T04:29:34;17.40;99.90
19799;DHT22;10059;59.850;10.454;2023-06-19T04:32:02;17.50;99.90
19799;DHT22;10059;59.850;10.454;2023-06-19T04:34:37;17.40;99.90
19799;DHT22;10059;59.850;10.454;2023-06-19T04:37:04;17.20;99.90
19799;DHT22;10059;59.850;10.454;2023-06-19T04:39:31;17.30;99.90
19799;DHT22;10059;59.850;10.454;2023-06-19T04:41:58;17.30;99.90
19799;DHT22;10059;59.850;10.454;2023-06-19T04:44:25;17.30;99.90
19799;DHT22;10059;59.850;10.454;2023-06-19T04:46:53;17.40;99.90
19799;DHT22;10059;59.850;10.454;2023-06-19T04:49:27;17.40;99.90
19799;DHT22;10059;59.850;10.454;2023-06-19T04:51:55;17.30;99.90
19799;DHT22;10059;59.850;10.454;2023-06-19T04:54:22;17.30;99.90
19799;DHT22;10059;59.850;10.454;2023-06-19T04:56:49;17.30;99.90
19799;DHT22;10059;59.850;10.454;2023-06-19T04:59:15;17.40;99.90
19799;DHT22;10059;59.850;10.454;2023-06-19T05:01:43;17.50;99.90
19799;DHT22;10059;59.850;10.454;2023-06-19T05:04:12;17.50;99.90
19799;DHT22;10059;59.850;10.454;2023-06-19T05:06:39;17.40;99.90
19799;DHT22;10059;59.850;10.454;2023-06-19T05:09:05;17.40;99.90
19799;DHT22;10059;59.850;10.454;2023-06-19T05:11:32;17.40;99.90
19799;DHT22;10059;59.850;10.454;2023-06-19T05:13:59;17.50;99.90
19799;DHT22;10059;59.850;10.454;2023-06-19T05:16:26;17.50;99.90
19799;DHT22;10059;59.850;10.454;2023-06-19T05:18:53;17.50;99.90
19799;DHT22;10059;59.850;10.454;2023-06-19T05:21:21;17.60;99.90
19799;DHT22;10059;59.850;10.454;2023-06-19T05:23:48;17.60;99.90
19799;DHT22;10059;59.850;10.454;2023-06-19T05:26:16;17.70;99.90
19799;DHT22;10059;59.850;10.454;2023-06-19T05:28:43;17.70;99.90
19799;DHT22;10059;59.850;10.454;2023-06-19T05:31:10;17.80;99.90
19799;DHT22;10059;59.850;10.454;2023-06-19T05:33:36;17.80;99.90
19799;DHT22;10059;59.850;10.454;2023-06-19T05:36:04;17.80;99.90
19799;DHT22;10059;59.850;10.454;2023-06-19T05:38:32;17.90;99.90
19799;DHT22;10059;59.850;10.454;2023-06-19T05:40:59;17.90;99.90
19799;DHT22;10059;59.850;10.454;2023-06-19T05:43:26;18.00;99.90
19799;DHT22;10059;59.850;10.454;2023-06-19T05:45:53;18.00;99.90
19799;DHT22;10059;59.850;10.454;2023-06-19T05:48:21;17.80;99.90
19799;DHT22;10059;59.850;10.454;2023-06-19T05:50:48;18.00;99.90
19799;DHT22;10059;59.850;10.454;2023-06-19T05:53:14;18.10;99.90
19799;DHT22;10059;59.850;10.454;2023-06-19T05:55:43;18.10;99.90
19799;DHT22;10059;59.850;10.454;2023-06-19T05:58:09;18.00;99.90
19799;DHT22;10059;59.850;10.454;2023-06-19T06:00:36;18.10;99.90
19799;DHT22;10059;59.850;10.454;2023-06-19T06:03:03;18.30;99.90
19799;DHT22;10059;59.850;10.454;2023-06-19T06:05:30;18.30;99.90
19799;DHT22;10059;59.850;10.454;2023-06-19T06:07:57;18.30;99.90
19799;DHT22;10059;59.850;10.454;2023-06-19T06:10:25;18.30;99.90
19799;DHT22;10059;59.850;10.454;2023-06-19T06:12:53;18.30;99.90
19799;DHT22;10059;59.850;10.454;2023-06-19T06:15:20;18.50;99.90
19799;DHT22;10059;59.850;10.454;2023-06-19T06:17:46;18.50;99.90
19799;DHT22;10059;59.850;10.454;2023-06-19T06:20:13;18.50;99.90
19799;DHT22;10059;59.850;10.454;2023-06-19T06:22:40;18.40;99.90
19799;DHT22;10059;59.850;10.454;2023-06-19T06:25:08;18.50;99.90
19799;DHT22;10059;59.850;10.454;2023-06-19T06:27:36;18.50;99.90
19799;DHT22;10059;59.850;10.454;2023-06-19T06:30:06;18.60;99.90
19799;DHT22;10059;59.850;10.454;2023-06-19T06:32:33;18.70;99.90
19799;DHT22;10059;59.850;10.454;2023-06-19T06:35:00;18.70;99.90
19799;DHT22;10059;59.850;10.454;2023-06-19T06:37:27;18.70;99.90
19799;DHT22;10059;59.850;10.454;2023-06-19T06:39:54;18.70;99.90
19799;DHT22;10059;59.850;10.454;2023-06-19T06:42:21;18.70;99.90
19799;DHT22;10059;59.850;10.454;2023-06-19T06:44:48;18.70;99.90
19799;DHT22;10059;59.850;10.454;2023-06-19T06:47:16;18.80;99.90
19799;DHT22;10059;59.850;10.454;2023-06-19T06:49:43;18.90;99.90
19799;DHT22;10059;59.850;10.454;2023-06-19T06:52:10;19.10;99.90
19799;DHT22;10059;59.850;10.454;2023-06-19T06:54:37;19.20;99.90
19799;DHT22;10059;59.850;10.454;2023-06-19T06:57:04;19.40;99.90
19799;DHT22;10059;59.850;10.454;2023-06-19T06:59:31;19.50;99.90
19799;DHT22;10059;59.850;10.454;2023-06-19T07:01:58;19.40;99.90
19799;DHT22;10059;59.850;10.454;2023-06-19T07:04:26;19.40;99.90
19799;DHT22;10059;59.850;10.454;2023-06-19T07:06:53;19.20;99.90
19799;DHT22;10059;59.850;10.454;2023-06-19T07:09:20;19.30;99.90
19799;DHT22;10059;59.850;10.454;2023-06-19T07:11:47;19.40;99.90
19799;DHT22;10059;59.850;10.454;2023-06-19T07:14:14;19.30;99.90
19799;DHT22;10059;59.850;10.454;2023-06-19T07:16:43;19.20;99.90
19799;DHT22;10059;59.850;10.454;2023-06-19T07:19:10;19.20;99.90
19799;DHT22;10059;59.850;10.454;2023-06-19T07:21:38;19.10;99.90
19799;DHT22;10059;59.850;10.454;2023-06-19T07:24:05;19.10;99.90
19799;DHT22;10059;59.850;10.454;2023-06-19T07:26:32;19.10;99.90
19799;DHT22;10059;59.850;10.454;2023-06-19T07:28:59;19.10;99.90
19799;DHT22;10059;59.850;10.454;2023-06-19T07:31:26;19.30;99.90
19799;DHT22;10059;59.850;10.454;2023-06-19T07:33:53;19.40;99.90
19799;DHT22;10059;59.850;10.454;2023-06-19T07:36:20;19.40;99.90
19799;DHT22;10059;59.850;10.454;2023-06-19T07:38:48;19.30;99.90
19799;DHT22;10059;59.850;10.454;2023-06-19T07:41:15;19.60;99.90
19799;DHT22;10059;59.850;10.454;2023-06-19T07:43:42;19.90;99.90
19799;DHT22;10059;59.850;10.454;2023-06-19T07:46:09;19.80;99.90
19799;DHT22;10059;59.850;10.454;2023-06-19T07:48:36;19.70;99.90
19799;DHT22;10059;59.850;10.454;2023-06-19T07:51:03;19.50;99.90
19799;DHT22;10059;59.850;10.454;2023-06-19T07:53:30;19.60;99.90
19799;DHT22;10059;59.850;10.454;2023-06-19T07:55:58;19.60;99.90
19799;DHT22;10059;59.850;10.454;2023-06-19T07:58:25;19.50;99.90
19799;DHT22;10059;59.850;10.454;2023-06-19T08:00:51;19.40;99.90
19799;DHT22;10059;59.850;10.454;2023-06-19T08:03:18;19.50;99.90
19799;DHT22;10059;59.850;10.454;2023-06-19T08:05:45;19.60;99.90
19799;DHT22;10059;59.850;10.454;2023-06-19T08:08:12;19.50;99.90
19799;DHT22;10059;59.850;10.454;2023-06-19T08:10:39;19.50;99.90
19799;DHT22;10059;59.850;10.454;2023-06-19T08:13:08;19.60;99.90
19799;DHT22;10059;59.850;10.454;2023-06-19T08:15:36;19.70;99.90
19799;DHT22;10059;59.850;10.454;2023-06-19T08:18:03;19.90;99.90
19799;DHT22;10059;59.850;10.454;2023-06-19T08:20:30;19.90;99.90
19799;DHT22;10059;59.850;10.454;2023-06-19T08:22:57;20.10;99.90
19799;DHT22;10059;59.850;10.454;2023-06-19T08:25:24;20.20;99.90
19799;DHT22;10059;59.850;10.454;2023-06-19T08:27:50;20.30;99.90
19799;DHT22;10059;59.850;10.454;2023-06-19T08:30:19;20.40;99.90
19799;DHT22;10059;59.850;10.454;2023-06-19T08:32:46;20.10;99.90
19799;DHT22;10059;59.850;10.454;2023-06-19T08:35:13;19.90;99.90
19799;DHT22;10059;59.850;10.454;2023-06-19T08:37:40;20.10;99.90
19799;DHT22;10059;59.850;10.454;2023-06-19T08:40:08;20.30;99.90
19799;DHT22;10059;59.850;10.454;2023-06-19T08:42:35;20.40;99.90
19799;DHT22;10059;59.850;10.454;2023-06-19T08:45:02;20.70;99.90
19799;DHT22;10059;59.850;10.454;2023-06-19T08:47:31;20.50;99.90
19799;DHT22;10059;59.850;10.454;2023-06-19T08:49:59;20.50;99.90
19799;DHT22;10059;59.850;10.454;2023-06-19T08:52:26;20.80;99.90
19799;DHT22;10059;59.850;10.454;2023-06-19T08:54:53;20.80;99.90
19799;DHT22;10059;59.850;10.454;2023-06-19T08:57:20;21.00;99.90
19799;DHT22;10059;59.850;10.454;2023-06-19T08:59:50;21.60;99.90
19799;DHT22;10059;59.850;10.454;2023-06-19T09:02:17;21.90;99.90
19799;DHT22;10059;59.850;10.454;2023-06-19T09:04:45;22.00;99.90
19799;DHT22;10059;59.850;10.454;2023-06-19T09:07:13;21.60;99.90
19799;DHT22;10059;59.850;10.454;2023-06-19T09:09:44;21.40;99.90
19799;DHT22;10059;59.850;10.454;2023-06-19T09:12:13;21.20;99.90
19799;DHT22;10059;59.850;10.454;2023-06-19T09:14:41;21.00;99.90
19799;DHT22;10059;59.850;10.454;2023-06-19T09:17:11;21.20;99.90
19799;DHT22;10059;59.850;10.454;2023-06-19T09:19:48;21.60;99.90
19799;DHT22;10059;59.850;10.454;2023-06-19T09:22:16;21.50;99.90
19799;DHT22;10059;59.850;10.454;2023-06-19T09:24:45;21.40;99.90
19799;DHT22;10059;59.850;10.454;2023-06-19T09:27:14;21.60;99.90
19799;DHT22;10059;59.850;10.454;2023-06-19T09:29:45;21.30;99.90
19799;DHT22;10059;59.850;10.454;2023-06-19T09:32:17;20.90;99.90
19799;DHT22;10059;59.850;10.454;2023-06-19T09:34:44;21.00;99.90
19799;DHT22;10059;59.850;10.454;2023-06-19T09:37:13;20.60;99.90
19799;DHT22;10059;59.850;10.454;2023-06-19T09:39:40;20.50;99.90
19799;DHT22;10059;59.850;10.454;2023-06-19T09:42:08;20.50;99.90
19799;DHT22;10059;59.850;10.454;2023-06-19T09:44:40;20.20;99.90
19799;DHT22;10059;59.850;10.454;2023-06-19T09:47:14;20.20;99.90
19799;DHT22;10059;59.850;10.454;2023-06-19T09:49:48;20.30;99.90
19799;DHT22;10059;59.850;10.454;2023-06-19T09:52:19;20.50;99.90
19799;DHT22;10059;59.850;10.454;2023-06-19T09:54:48;20.80;99.90
19799;DHT22;10059;59.850;10.454;2023-06-19T09:57:16;20.60;99.90
19799;DHT22;10059;59.850;10.454;2023-06-19T09:59:46;20.80;99.90
19799;DHT22;10059;59.850;10.454;2023-06-19T10:02:15;20.80;99.90
19799;DHT22;10059;59.850;10.454;2023-06-19T10:04:44;21.00;99.90
19799;DHT22;10059;59.850;10.454;2023-06-19T10:07:20;21.10;99.90
19799;DHT22;10059;59.850;10.454;2023-06-19T10:10:01;21.20;99.90
19799;DHT22;10059;59.850;10.454;2023-06-19T10:12:35;21.20;99.90
19799;DHT22;10059;59.850;10.454;2023-06-19T10:15:12;21.10;99.90
19799;DHT22;10059;59.850;10.454;2023-06-19T10:17:51;20.80;99.90
19799;DHT22;10059;59.850;10.454;2023-06-19T10:20:24;21.00;99.90
19799;DHT22;10059;59.850;10.454;2023-06-19T10:22:56;21.60;99.90
19799;DHT22;10059;59.850;10.454;2023-06-19T10:25:24;21.70;99.90
19799;DHT22;10059;59.850;10.454;2023-06-19T10:27:53;21.40;99.90
19799;DHT22;10059;59.850;10.454;2023-06-19T10:30:20;21.50;99.90
19799;DHT22;10059;59.850;10.454;2023-06-19T10:32:47;21.50;99.90
19799;DHT22;10059;59.850;10.454;2023-06-19T10:35:16;21.70;99.90
19799;DHT22;10059;59.850;10.454;2023-06-19T10:37:47;21.70;99.90
19799;DHT22;10059;59.850;10.454;2023-06-19T10:40:15;21.90;99.90
19799;DHT22;10059;59.850;10.454;2023-06-19T10:42:42;22.30;99.90
19799;DHT22;10059;59.850;10.454;2023-06-19T10:45:10;22.40;99.90
19799;DHT22;10059;59.850;10.454;2023-06-19T10:47:39;22.30;99.90
19799;DHT22;10059;59.850;10.454;2023-06-19T10:50:10;21.80;99.90
19799;DHT22;10059;59.850;10.454;2023-06-19T10:52:40;21.80;99.90
19799;DHT22;10059;59.850;10.454;2023-06-19T10:55:08;22.00;99.90
19799;DHT22;10059;59.850;10.454;2023-06-19T10:57:37;22.20;99.90
19799;DHT22;10059;59.850;10.454;2023-06-19T11:00:05;22.30;99.90
19799;DHT22;10059;59.850;10.454;2023-06-19T11:02:37;22.50;99.90
19799;DHT22;10059;59.850;10.454;2023-06-19T11:05:05;22.00;99.90
19799;DHT22;10059;59.850;10.454;2023-06-19T11:07:34;22.20;99.90
19799;DHT22;10059;59.850;10.454;2023-06-19T11:10:01;22.60;99.90
19799;DHT22;10059;59.850;10.454;2023-06-19T11:12:28;22.90;99.90
19799;DHT22;10059;59.850;10.454;2023-06-19T11:14:56;23.20;99.90
19799;DHT22;10059;59.850;10.454;2023-06-19T11:17:23;22.80;99.90
19799;DHT22;10059;59.850;10.454;2023-06-19T11:19:50;22.90;99.90
19799;DHT22;10059;59.850;10.454;2023-06-19T11:22:17;23.50;99.90
19799;DHT22;10059;59.850;10.454;2023-06-19T11:24:44;24.00;99.90
19799;DHT22;10059;59.850;10.454;2023-06-19T11:27:19;23.60;99.90
19799;DHT22;10059;59.850;10.454;2023-06-19T11:29:56;23.40;99.90
19799;DHT22;10059;59.850;10.454;2023-06-19T11:32:29;23.10;99.90
19799;DHT22;10059;59.850;10.454;2023-06-19T11:34:57;22.90;99.90
19799;DHT22;10059;59.850;10.454;2023-06-19T11:37:23;23.30;99.90
19799;DHT22;10059;59.850;10.454;2023-06-19T11:39:50;23.40;99.90
19799;DHT22;10059;59.850;10.454;2023-06-19T11:42:18;23.70;99.90
19799;DHT22;10059;59.850;10.454;2023-06-19T11:44:55;24.20;99.90
19799;DHT22;10059;59.850;10.454;2023-06-19T11:47:23;24.70;99.90
19799;DHT22;10059;59.850;10.454;2023-06-19T11:49:50;24.40;99.90
19799;DHT22;10059;59.850;10.454;2023-06-19T11:52:17;24.40;99.90
19799;DHT22;10059;59.850;10.454;2023-06-19T11:54:44;23.90;99.90
19799;DHT22;10059;59.850;10.454;2023-06-19T11:57:12;23.70;99.90
19799;DHT22;10059;59.850;10.454;2023-06-19T11:59:39;23.90;99.90
19799;DHT22;10059;59.850;10.454;2023-06-19T12:02:08;23.80;99.90
19799;DHT22;10059;59.850;10.454;2023-06-19T12:04:35;23.70;99.90
19799;DHT22;10059;59.850;10.454;2023-06-19T12:07:02;24.70;99.90
19799;DHT22;10059;59.850;10.454;2023-06-19T12:09:30;24.60;99.90
19799;DHT22;10059;59.850;10.454;2023-06-19T12:11:57;25.30;99.90
19799;DHT22;10059;59.850;10.454;2023-06-19T12:14:24;25.30;99.90
19799;DHT22;10059;59.850;10.454;2023-06-19T12:16:52;25.40;99.90
19799;DHT22;10059;59.850;10.454;2023-06-19T12:19:20;25.30;99.90
19799;DHT22;10059;59.850;10.454;2023-06-19T12:21:47;24.80;99.90
19799;DHT22;10059;59.850;10.454;2023-06-19T12:24:13;24.70;99.90
19799;DHT22;10059;59.850;10.454;2023-06-19T12:26:40;24.50;99.90
19799;DHT22;10059;59.850;10.454;2023-06-19T12:29:07;24.20;99.90
19799;DHT22;10059;59.850;10.454;2023-06-19T12:31:34;24.00;99.90
19799;DHT22;10059;59.850;10.454;2023-06-19T12:34:02;24.30;99.90
19799;DHT22;10059;59.850;10.454;2023-06-19T12:36:32;24.30;99.90
19799;DHT22;10059;59.850;10.454;2023-06-19T12:38:59;24.70;99.90
19799;DHT22;10059;59.850;10.454;2023-06-19T12:41:26;24.90;99.90
19799;DHT22;10059;59.850;10.454;2023-06-19T12:43:52;24.90;99.90
19799;DHT22;10059;59.850;10.454;2023-06-19T12:46:19;25.30;99.90
19799;DHT22;10059;59.850;10.454;2023-06-19T12:48:46;25.60;99.90
19799;DHT22;10059;59.850;10.454;2023-06-19T12:51:16;26.20;99.90
19799;DHT22;10059;59.850;10.454;2023-06-19T12:53:44;25.70;99.90
19799;DHT22;10059;59.850;10.454;2023-06-19T12:56:11;26.00;99.90
19799;DHT22;10059;59.850;10.454;2023-06-19T12:58:38;25.90;99.90
19799;DHT22;10059;59.850;10.454;2023-06-19T13:01:05;25.60;99.90
19799;DHT22;10059;59.850;10.454;2023-06-19T13:03:32;25.50;99.90
19799;DHT22;10059;59.850;10.454;2023-06-19T13:05:59;24.80;99.90
19799;DHT22;10059;59.850;10.454;2023-06-19T13:08:26;24.80;99.90
19799;DHT22;10059;59.850;10.454;2023-06-19T13:10:54;24.40;99.90
19799;DHT22;10059;59.850;10.454;2023-06-19T13:13:21;24.20;99.90
19799;DHT22;10059;59.850;10.454;2023-06-19T13:15:48;23.80;99.90
19799;DHT22;10059;59.850;10.454;2023-06-19T13:18:14;23.40;99.90
19799;DHT22;10059;59.850;10.454;2023-06-19T13:20:41;23.40;99.90
19799;DHT22;10059;59.850;10.454;2023-06-19T13:23:10;23.50;99.90
19799;DHT22;10059;59.850;10.454;2023-06-19T13:25:37;23.60;99.90
19799;DHT22;10059;59.850;10.454;2023-06-19T13:28:05;23.50;99.90
19799;DHT22;10059;59.850;10.454;2023-06-19T13:30:32;23.50;99.90
19799;DHT22;10059;59.850;10.454;2023-06-19T13:32:59;23.00;99.90
19799;DHT22;10059;59.850;10.454;2023-06-19T13:35:25;22.70;99.90
19799;DHT22;10059;59.850;10.454;2023-06-19T13:37:52;22.70;99.90
19799;DHT22;10059;59.850;10.454;2023-06-19T13:40:19;22.40;99.90
19799;DHT22;10059;59.850;10.454;2023-06-19T13:42:49;22.60;99.90
19799;DHT22;10059;59.850;10.454;2023-06-19T13:45:17;23.00;99.90
19799;DHT22;10059;59.850;10.454;2023-06-19T13:47:44;23.40;99.90
19799;DHT22;10059;59.850;10.454;2023-06-19T13:50:11;23.00;99.90
19799;DHT22;10059;59.850;10.454;2023-06-19T13:52:44;22.80;99.90
19799;DHT22;10059;59.850;10.454;2023-06-19T13:55:10;22.80;99.90
19799;DHT22;10059;59.850;10.454;2023-06-19T13:57:37;22.60;99.90
19799;DHT22;10059;59.850;10.454;2023-06-19T14:00:07;22.70;99.90
19799;DHT22;10059;59.850;10.454;2023-06-19T14:02:37;22.70;99.90
19799;DHT22;10059;59.850;10.454;2023-06-19T14:05:05;22.60;99.90
19799;DHT22;10059;59.850;10.454;2023-06-19T14:07:32;22.70;99.90
19799;DHT22;10059;59.850;10.454;2023-06-19T14:10:01;22.70;99.90
19799;DHT22;10059;59.850;10.454;2023-06-19T14:12:28;22.60;99.90
19799;DHT22;10059;59.850;10.454;2023-06-19T14:14:55;22.80;99.90
19799;DHT22;10059;59.850;10.454;2023-06-19T14:17:22;22.90;99.90
19799;DHT22;10059;59.850;10.454;2023-06-19T14:19:50;22.90;99.90
19799;DHT22;10059;59.850;10.454;2023-06-19T14:22:17;22.80;99.90
19799;DHT22;10059;59.850;10.454;2023-06-19T14:24:44;22.80;99.90
19799;DHT22;10059;59.850;10.454;2023-06-19T14:27:11;22.60;99.90
19799;DHT22;10059;59.850;10.454;2023-06-19T14:29:39;22.60;99.90
19799;DHT22;10059;59.850;10.454;2023-06-19T14:32:06;22.40;99.90
19799;DHT22;10059;59.850;10.454;2023-06-19T14:34:32;22.50;99.90
19799;DHT22;10059;59.850;10.454;2023-06-19T14:37:01;22.40;99.90
19799;DHT22;10059;59.850;10.454;2023-06-19T14:39:28;22.50;99.90
19799;DHT22;10059;59.850;10.454;2023-06-19T14:41:54;22.40;99.90
19799;DHT22;10059;59.850;10.454;2023-06-19T14:44:21;22.70;99.90
19799;DHT22;10059;59.850;10.454;2023-06-19T14:46:48;22.90;99.90
19799;DHT22;10059;59.850;10.454;2023-06-19T14:49:15;22.70;99.90
19799;DHT22;10059;59.850;10.454;2023-06-19T14:51:42;22.60;99.90
19799;DHT22;10059;59.850;10.454;2023-06-19T14:54:10;22.50;99.90
19799;DHT22;10059;59.850;10.454;2023-06-19T14:56:37;22.50;99.90
19799;DHT22;10059;59.850;10.454;2023-06-19T14:59:04;22.70;99.90
19799;DHT22;10059;59.850;10.454;2023-06-19T15:01:31;22.70;99.90
19799;DHT22;10059;59.850;10.454;2023-06-19T15:03:57;22.70;99.90
19799;DHT22;10059;59.850;10.454;2023-06-19T15:06:25;22.80;99.90
19799;DHT22;10059;59.850;10.454;2023-06-19T15:08:52;22.80;99.90
19799;DHT22;10059;59.850;10.454;2023-06-19T15:11:20;23.10;99.90
19799;DHT22;10059;59.850;10.454;2023-06-19T15:13:46;23.20;99.90
19799;DHT22;10059;59.850;10.454;2023-06-19T15:16:13;23.20;99.90
19799;DHT22;10059;59.850;10.454;2023-06-19T15:18:40;23.40;99.90